createdAt,value
2022-07-25T12:05:21.431Z,100895.09
2022-07-25T12:06:19.946Z,100892.67
2022-07-25T12:07:20.317Z,100893.02
2022-07-25T12:08:20.474Z,100893.23
2022-07-25T12:09:21.001Z,100892.83
2022-07-25T12:10:21.942Z,100892.80
2022-07-25T12:11:22.410Z,100892.97
2022-07-25T12:12:22.628Z,100892.72
2022-07-25T12:13:23.640Z,100892.55
2022-07-25T12:14:25.840Z,100892.32
2022-07-25T12:15:23.946Z,100892.02
2022-07-25T12:16:31.049Z,100891.72
2022-07-25T12:17:24.861Z,100891.45
2022-07-25T12:18:24.985Z,100891.30
2022-07-25T12:19:25.426Z,100891.13
2022-07-25T12:20:27.624Z,100890.45
2022-07-25T12:21:26.029Z,100889.66
2022-07-25T12:22:26.923Z,100888.78
2022-07-25T12:23:30.195Z,100887.13
2022-07-25T12:24:29.170Z,100886.41
2022-07-25T12:25:30.995Z,100884.86
2022-07-25T12:26:28.562Z,100883.55
2022-07-25T12:27:29.978Z,100881.73
2022-07-25T12:27:39.724Z,100855.59
2022-07-25T12:28:40.308Z,100851.19
2022-07-25T12:29:41.603Z,100851.23
2022-07-25T12:30:42.571Z,100850.80
2022-07-25T12:31:41.724Z,100850.95
2022-07-25T12:32:41.678Z,100850.69
2022-07-25T12:33:42.493Z,100850.64
2022-07-25T12:34:43.471Z,100850.53
2022-07-25T12:35:44.432Z,100850.17
2022-07-25T12:36:46.380Z,100849.52
2022-07-25T12:37:46.456Z,100849.17
2022-07-25T12:38:46.365Z,100848.67
2022-07-25T12:39:48.665Z,100848.20
2022-07-25T12:40:47.300Z,100846.81
2022-07-25T12:41:47.771Z,100845.61
2022-07-25T12:42:49.375Z,100845.00
2022-07-25T12:43:48.532Z,100843.73
2022-07-25T12:44:48.851Z,100842.45
2022-07-25T12:45:49.501Z,100841.39
2022-07-25T12:46:49.821Z,100839.88
2022-07-25T12:47:50.443Z,100839.04
2022-07-25T12:48:51.499Z,100837.98
2022-07-25T12:49:51.693Z,100837.30
2022-07-25T12:50:53.012Z,100836.33
2022-07-25T12:51:57.904Z,100835.62
2022-07-25T12:52:53.487Z,100834.58
2022-07-25T12:53:53.809Z,100834.19
2022-07-25T12:54:03.685Z,100833.90
2022-07-25T12:55:04.316Z,100827.88
2022-07-25T12:56:05.093Z,100827.30
2022-07-25T12:57:08.011Z,100826.24
2022-07-25T12:58:06.388Z,100826.47
2022-07-25T12:59:07.258Z,100826.30
2022-07-25T13:00:07.742Z,100826.02
2022-07-25T13:01:08.399Z,100825.64
2022-07-25T13:02:13.297Z,100825.72
2022-07-25T13:03:08.561Z,100825.66
2022-07-25T13:04:08.759Z,100825.19
2022-07-25T13:05:08.995Z,100824.52
2022-07-25T13:06:09.619Z,100823.48
2022-07-25T13:07:10.887Z,100822.98
2022-07-25T13:08:11.054Z,100822.50
2022-07-25T13:09:11.614Z,100822.12
2022-07-25T13:10:12.293Z,100821.18
2022-07-25T13:11:13.013Z,100820.66
2022-07-25T13:12:16.393Z,100820.01
2022-07-25T13:13:13.449Z,100818.87
2022-07-25T13:14:13.892Z,100817.95
2022-07-25T13:15:14.635Z,100816.86
2022-07-25T13:16:15.455Z,100815.77
2022-07-25T13:17:18.180Z,100814.95
2022-07-25T20:36:35.384Z,101194.70
2022-07-25T20:37:35.525Z,101191.13
2022-07-25T20:38:36.110Z,101191.13
2022-07-25T20:39:38.359Z,101191.41
2022-07-25T20:40:36.161Z,101191.69
2022-07-25T20:41:44.696Z,101192.78
2022-07-25T20:42:37.052Z,101192.98
2022-07-25T20:43:37.511Z,101193.77
2022-07-25T20:44:37.638Z,101194.45
2022-07-25T20:45:37.873Z,101194.95
2022-07-25T20:46:38.351Z,101196.08
2022-07-25T20:47:41.179Z,101196.99
2022-07-25T20:48:39.698Z,101198.05
2022-07-25T20:49:42.479Z,101198.77
2022-07-25T20:50:40.223Z,101199.44
2022-07-25T20:51:40.581Z,101200.73
2022-07-25T20:52:44.320Z,101201.67
2022-07-25T20:53:45.138Z,101202.48
2022-07-25T20:54:43.433Z,101203.36
2022-07-25T20:54:55.392Z,101221.62
2022-07-25T20:55:56.366Z,101219.19
2022-07-25T20:56:57.195Z,101219.22
2022-07-25T20:58:05.119Z,101219.87
2022-07-25T20:59:01.028Z,101220.58
2022-07-25T20:59:59.116Z,101221.27
2022-07-25T21:01:00.314Z,101222.12
2022-07-25T21:02:00.359Z,101222.55
2022-07-25T21:03:04.029Z,101222.67
2022-07-25T21:04:07.304Z,101223.59
2022-07-25T21:05:02.579Z,101224.71
2022-07-25T21:06:03.511Z,101225.67
2022-07-25T21:07:11.006Z,101226.45
2022-07-25T21:07:33.034Z,101246.69
2022-07-25T21:08:53.479Z,101245.76
2022-07-25T21:09:33.328Z,101246.00
2022-07-25T21:10:36.733Z,101245.66
2022-07-25T21:11:34.147Z,101246.45
2022-07-25T21:12:34.932Z,101246.87
2022-07-25T21:13:37.747Z,101247.11
2022-07-25T21:14:35.750Z,101247.11
2022-07-25T21:18:00.576Z,101248.16
2022-07-25T21:18:58.943Z,101249.34
2022-07-25T21:20:07.491Z,101250.84
